Time;durP1;ratioP1;P1;durP2;ratioP2;P2;SDS_P1;SDS_P2;PMS_P1;PMS_P2;Temp;Humidity;BMP_temperature;BMP_pressure;BME280_temperature;BME280_humidity;BME280_pressure;Samples;Min_cycle;Max_cycle;Signal;HPM_P1;HPM_P2
2022/12/10 00:03:08;;;;;;;20.10;10.15;;;;;;;2.71;100.00;101342.66;10418488;28;20037;-81
2022/12/10 00:08:09;;;;;;;16.77;9.40;;;;;;;2.70;100.00;101335.75;10418721;28;20045;-81
2022/12/10 00:13:10;;;;;;;17.35;10.35;;;;;;;2.55;100.00;101305.19;10418688;28;20509;-81
2022/12/10 00:18:10;;;;;;;16.13;10.15;;;;;;;2.64;100.00;101320.38;10417537;28;20516;-80
2022/12/10 00:23:11;;;;;;;17.30;9.50;;;;;;;2.74;100.00;101334.59;10417139;28;20041;-79
2022/12/10 00:28:12;;;;;;;16.00;9.98;;;;;;;2.81;100.00;101329.81;10418057;28;20171;-80
2022/12/10 00:33:13;;;;;;;14.10;9.75;;;;;;;2.83;100.00;101330.59;10417532;28;20047;-81
2022/12/10 00:38:14;;;;;;;18.02;10.48;;;;;;;2.88;100.00;101331.16;10417309;28;20037;-80
2022/12/10 00:43:14;;;;;;;16.00;10.82;;;;;;;2.79;100.00;101309.91;10417366;28;20047;-80
2022/12/10 00:48:15;;;;;;;16.05;10.05;;;;;;;2.63;100.00;101283.72;10418018;28;20064;-80
2022/12/10 00:53:16;;;;;;;15.68;10.85;;;;;;;2.80;100.00;101304.53;10416729;28;20485;-81
2022/12/10 00:58:17;;;;;;;16.48;11.02;;;;;;;2.71;100.00;101287.56;10416639;28;20513;-80
2022/12/10 01:03:17;;;;;;;17.48;10.93;;;;;;;2.46;100.00;101229.69;10416260;28;20037;-80
2022/12/10 01:08:18;;;;;;;15.82;11.23;;;;;;;2.60;100.00;101260.31;10416289;28;20103;-81
2022/12/10 01:13:19;;;;;;;16.35;11.25;;;;;;;2.85;100.00;101288.53;10411104;28;20045;-81
2022/12/10 01:18:20;;;;;;;14.90;11.20;;;;;;;2.87;100.00;101282.25;10396801;28;20045;-81
2022/12/10 01:23:20;;;;;;;18.83;11.07;;;;;;;2.87;100.00;101278.75;10415078;28;20068;-80
2022/12/10 01:28:21;;;;;;;18.27;11.82;;;;;;;2.97;100.00;101295.63;10380400;28;20041;-80
2022/12/10 01:33:22;;;;;;;20.88;11.65;;;;;;;2.50;100.00;101218.06;10373775;28;20050;-80
2022/12/10 01:38:23;;;;;;;16.40;11.15;;;;;;;2.90;100.00;101286.44;10373635;28;20038;-80
2022/12/10 01:43:24;;;;;;;19.25;11.23;;;;;;;2.91;100.00;101281.09;10373512;28;20049;-80
2022/12/10 01:48:25;;;;;;;17.30;11.35;;;;;;;2.99;100.00;101288.47;10384594;28;20062;-80
2022/12/10 01:53:26;;;;;;;17.20;11.45;;;;;;;2.97;100.00;101290.38;10373329;28;20050;-80
2022/12/10 01:58:27;;;;;;;19.52;12.15;;;;;;;2.72;100.00;101249.06;10373456;28;20065;-80
2022/12/10 02:03:50;;;;;;;21.90;12.38;;;;;;;2.98;100.00;101286.81;10373661;28;20131;-80
2022/12/10 02:09:00;;;;;;;20.77;12.82;;;;;;;2.95;100.00;101290.47;10372680;28;20048;-80
2022/12/10 02:14:14;;;;;;;24.75;13.77;;;;;;;2.55;100.00;101217.81;10373232;28;20128;-80
2022/12/10 02:19:39;;;;;;;18.23;13.18;;;;;;;2.93;100.00;101294.13;10372498;28;20424;-80
2022/12/10 02:24:41;;;;;;;22.50;13.18;;;;;;;2.82;100.00;101284.31;10372770;28;20069;-80
2022/12/10 02:29:46;;;;;;;17.35;12.60;;;;;;;2.90;100.00;101302.19;10372134;28;20073;-79
2022/12/10 02:34:48;;;;;;;;;;;;;;;3.02;100.00;101295.31;10372623;28;20038;-78
2022/12/10 02:39:52;;;;;;;16.17;11.65;;;;;;;2.91;100.00;101303.88;10373317;28;19925;-80
2022/12/10 02:44:53;;;;;;;;;;;;;;;3.02;100.00;101295.31;10373152;28;20446;-80
2022/12/10 02:49:56;;;;;;;21.00;12.50;;;;;;;2.43;100.00;101230.72;10371657;28;19964;-79
2022/12/10 02:54:57;;;;;;;18.75;12.05;;;;;;;2.78;100.00;101290.66;10372137;28;20046;-80
2022/12/10 03:00:05;;;;;;;19.77;12.43;;;;;;;2.68;100.00;101287.75;10378550;28;20042;-80
2022/12/10 03:05:36;;;;;;;19.60;13.25;;;;;;;2.79;100.00;101299.41;10380001;28;20049;-81
2022/12/10 03:10:59;;;;;;;23.25;12.85;;;;;;;2.61;100.00;101290.88;10380297;28;20041;-81
2022/12/10 03:16:02;;;;;;;22.98;13.18;;;;;;;2.70;100.00;101298.19;10379212;28;20046;-79
2022/12/10 03:21:05;;;;;;;18.55;13.02;;;;;;;2.50;100.00;101274.00;10379936;28;20124;-79
2022/12/10 03:26:06;;;;;;;19.45;12.98;;;;;;;2.69;100.00;101288.59;10379919;28;20522;-80
2022/12/10 03:31:11;;;;;;;22.58;13.60;;;;;;;2.39;100.00;101228.38;10378002;28;20046;-80
2022/12/10 03:36:13;;;;;;;19.27;13.85;;;;;;;2.36;100.00;101229.41;10378513;28;20069;-80
2022/12/10 03:41:14;;;;;;;18.50;13.55;;;;;;;2.83;100.00;101303.50;10377913;28;20513;-79
2022/12/10 03:46:14;;;;;;;20.67;14.82;;;;;;;2.74;100.00;101295.25;10378813;28;20065;-80
2022/12/10 03:51:15;;;;;;;21.42;14.07;;;;;;;2.80;100.00;101301.91;10378429;28;20053;-80
2022/12/10 03:56:18;;;;;;;23.33;14.95;;;;;;;2.72;100.00;101291.91;10378328;28;20041;-80
2022/12/10 04:01:19;;;;;;;25.10;15.27;;;;;;;2.24;100.00;101224.91;10378006;28;20038;-79
2022/12/10 04:06:20;;;;;;;23.30;15.45;;;;;;;2.38;100.00;101245.88;10377912;28;20041;-79
2022/12/10 04:11:21;;;;;;;24.63;16.05;;;;;;;2.74;100.00;101303.13;10381346;28;20091;-80
2022/12/10 04:16:29;;;;;;;24.88;16.67;;;;;;;2.74;100.00;101297.88;10383883;28;20128;-80
2022/12/10 04:26:51;;;;;;;25.90;17.23;;;;;;;2.82;100.00;101302.66;10377164;28;20038;-81
2022/12/10 04:31:53;;;;;;;26.70;16.20;;;;;;;2.87;100.00;101299.75;10378566;28;20042;-80
2022/12/10 04:36:54;;;;;;;34.00;18.45;;;;;;;2.92;100.00;101305.56;10374982;28;20054;-80
2022/12/10 04:41:55;;;;;;;27.92;16.48;;;;;;;2.84;100.00;101286.81;10377087;28;20048;-81
2022/12/10 04:46:56;;;;;;;24.98;17.27;;;;;;;2.98;100.00;101307.81;10376424;28;20077;-82
2022/12/10 04:51:58;;;;;;;23.05;16.92;;;;;;;3.06;100.00;101312.59;10375547;28;20038;-81
2022/12/10 04:56:58;;;;;;;32.22;18.40;;;;;;;3.12;100.00;101323.53;10374205;28;20073;-81
2022/12/10 05:01:59;;;;;;;28.10;19.38;;;;;;;3.12;100.00;101320.06;10375394;28;20080;-81
2022/12/10 05:07:00;;;;;;;28.15;17.85;;;;;;;2.90;100.00;101286.44;10375606;28;20049;-80
2022/12/10 05:12:01;;;;;;;29.60;18.73;;;;;;;2.34;100.00;101198.97;10375862;28;20128;-79
2022/12/10 05:17:02;;;;;;;28.25;18.08;;;;;;;3.01;100.00;101312.84;10374689;28;20038;-80
2022/12/10 05:27:22;;;;;;;30.20;18.67;;;;;;;3.15;100.00;101339.09;10374959;28;20099;-79
2022/12/10 05:32:22;;;;;;;27.60;19.15;;;;;;;3.18;100.00;101333.66;10408701;28;20041;-80
2022/12/10 05:37:23;;;;;;;30.42;19.92;;;;;;;2.66;100.00;101225.81;10414290;28;20053;-80
2022/12/10 05:42:24;;;;;;;30.55;19.70;;;;;;;3.37;100.00;101329.88;10415083;28;20048;-80
2022/12/10 05:47:25;;;;;;;24.45;17.08;;;;;;;3.11;100.00;101284.25;10414234;28;20144;-79
2022/12/10 05:52:26;;;;;;;30.33;16.90;;;;;;;3.47;100.00;101328.34;10397025;28;20199;-82
2022/12/10 05:57:27;;;;;;;24.83;17.02;;;;;;;3.28;100.00;101288.44;10373086;28;20191;-81
2022/12/10 06:02:27;;;;;;;26.00;14.93;;;;;;;3.56;100.00;101327.78;10398049;28;20052;-82
2022/12/10 06:07:29;;;;;;;20.67;14.82;;;;;;;3.62;100.00;101327.38;10413704;28;20041;-82
2022/12/10 06:12:30;;;;;;;26.00;15.73;;;;;;;3.66;100.00;101338.53;10385177;28;20045;-84
2022/12/10 06:17:31;;;;;;;21.65;15.45;;;;;;;3.59;100.00;101335.44;10417442;28;20045;-79
2022/12/10 06:22:33;;;;;;;20.35;14.02;;;;;;;3.72;100.00;101348.63;10446466;28;20109;-80
2022/12/10 06:27:34;;;;;;;19.42;13.80;;;;;;;3.56;100.00;101296.25;10427098;28;20436;-81
2022/12/10 06:32:34;;;;;;;20.20;13.30;;;;;;;3.40;100.00;101253.50;10427116;28;20029;-80
2022/12/10 06:37:36;;;;;;;22.52;13.88;;;;;;;3.80;100.00;101313.94;10409632;28;20072;-82
2022/12/10 06:42:36;;;;;;;19.60;12.45;;;;;;;3.37;100.00;101238.78;10382824;28;20041;-78
2022/12/10 06:47:37;;;;;;;18.40;12.25;;;;;;;3.83;100.00;101319.88;10372801;28;20050;-74
2022/12/10 06:52:38;;;;;;;24.30;11.63;;;;;;;3.74;100.00;101323.09;10371585;28;20057;-74
2022/12/10 06:57:39;;;;;;;19.50;11.43;;;;;;;3.61;100.00;101316.94;10371951;28;20405;-73
2022/12/10 07:02:40;;;;;;;22.75;13.63;;;;;;;3.38;100.00;101260.63;10371447;28;20502;-74
2022/12/10 07:07:40;;;;;;;24.48;13.10;;;;;;;3.79;100.00;101328.88;10371332;28;20214;-77
2022/12/10 07:12:41;;;;;;;23.05;13.05;;;;;;;3.76;100.00;101309.84;10434109;28;20071;-75
2022/12/10 07:17:42;;;;;;;22.67;13.77;;;;;;;3.99;100.00;101329.38;10454000;28;20048;-76
2022/12/10 07:22:43;;;;;;;20.10;13.13;;;;;;;4.00;100.00;101316.13;10399391;28;20053;-75
2022/12/10 07:27:44;;;;;;;20.63;13.63;;;;;;;3.63;100.00;101244.97;10391398;28;20128;-76
2022/12/10 07:32:44;;;;;;;23.40;13.30;;;;;;;3.71;100.00;101228.72;10402572;28;20048;-75
2022/12/10 07:37:45;;;;;;;22.77;12.75;;;;;;;4.03;100.00;101262.50;10412272;28;20044;-78
2022/12/10 07:42:46;;;;;;;19.33;12.48;;;;;;;4.28;100.00;101294.09;10388292;28;20084;-76
2022/12/10 07:47:47;;;;;;;23.55;12.65;;;;;;;4.32;100.00;101292.09;10379098;28;20453;-75
2022/12/10 07:52:48;;;;;;;19.73;12.40;;;;;;;4.41;100.00;101272.19;10378033;28;20121;-75
2022/12/10 07:57:48;;;;;;;22.40;12.38;;;;;;;3.94;100.00;101192.13;10378294;28;20049;-75
2022/12/10 08:02:49;;;;;;;17.45;12.05;;;;;;;4.33;100.00;101255.13;10378070;28;20057;-76
2022/12/10 08:07:50;;;;;;;19.95;12.00;;;;;;;4.46;100.00;101262.22;10377339;28;20049;-76
2022/12/10 08:12:50;;;;;;;19.02;11.80;;;;;;;4.58;100.00;101274.53;10377825;28;20053;-75
2022/12/10 08:17:51;;;;;;;18.30;11.68;;;;;;;4.28;99.36;101181.00;10377817;28;20121;-76
2022/12/10 08:22:52;;;;;;;15.70;11.20;;;;;;;4.78;99.95;101249.41;10377270;28;20045;-74
2022/12/10 08:27:53;;;;;;;16.58;11.18;;;;;;;4.77;99.40;101231.94;10376582;28;20501;-74
2022/12/10 08:32:53;;;;;;;25.38;11.10;;;;;;;4.89;99.44;101231.06;10376895;28;20041;-75
2022/12/10 08:37:54;;;;;;;22.60;10.70;;;;;;;4.69;99.23;101177.19;10376179;28;20038;-76
2022/12/10 08:42:55;;;;;;;16.20;11.40;;;;;;;5.09;99.31;101226.19;10376582;28;20048;-74
2022/12/10 08:47:56;;;;;;;14.38;9.73;;;;;;;5.08;98.85;101230.59;10376610;28;20058;-74
2022/12/10 08:52:57;;;;;;;18.83;11.18;;;;;;;5.02;99.07;101228.38;10375449;28;20046;-75
2022/12/10 08:57:58;;;;;;;22.83;10.52;;;;;;;5.06;99.08;101214.06;10375088;28;20038;-75
2022/12/10 09:02:59;;;;;;;18.83;9.13;;;;;;;4.94;99.00;101214.97;10375464;28;20115;-76
2022/12/10 09:08:00;;;;;;;16.38;9.48;;;;;;;4.98;98.93;101217.25;10375650;28;20073;-74
2022/12/10 09:13:01;;;;;;;16.55;10.43;;;;;;;5.00;99.22;101212.72;10374805;28;20413;-75
2022/12/10 09:30:31;;;;;;;21.10;9.48;;;;;;;4.27;98.70;101118.78;10550463;27;20426;-75
2022/12/10 09:35:32;;;;;;;21.25;10.18;;;;;;;4.39;99.81;101111.81;10532046;28;20040;-74
2022/12/10 09:40:41;;;;;;;19.08;9.73;;;;;;;4.79;100.00;101166.88;10530155;28;20040;-76
2022/12/10 09:46:11;;;;;;;18.33;9.60;;;;;;;5.00;100.00;101177.66;10518711;28;20041;-75
2022/12/10 09:51:20;;;;;;;24.67;10.55;;;;;;;4.95;100.00;101171.88;10470000;28;20110;-76
2022/12/10 09:56:24;;;;;;;18.02;10.27;;;;;;;4.64;100.00;101100.41;10487556;28;20059;-75
2022/12/10 10:01:28;;;;;;;17.83;9.88;;;;;;;5.19;100.00;101171.88;10488874;28;20037;-75
2022/12/10 10:06:31;;;;;;;18.25;11.20;;;;;;;5.20;100.00;101147.19;10488096;28;20114;-75
2022/12/10 10:11:35;;;;;;;20.08;12.27;;;;;;;5.43;98.81;101164.78;10488323;28;20090;-76
2022/12/10 10:16:45;;;;;;;22.65;12.90;;;;;;;5.47;99.07;101147.81;10488940;28;20456;-76
2022/12/10 10:21:48;;;;;;;19.00;13.07;;;;;;;5.23;98.82;101103.06;10488571;28;20071;-74
2022/12/10 10:26:53;;;;;;;26.40;18.13;;;;;;;5.35;98.46;101116.25;10488868;28;20056;-74
2022/12/10 10:32:16;;;;;;;17.92;11.98;;;;;;;5.68;96.89;101155.00;10488729;28;20283;-74
2022/12/10 10:37:42;;;;;;;24.92;19.50;;;;;;;5.76;96.77;101149.16;10484978;28;20475;-74
2022/12/10 10:42:45;;;;;;;19.88;13.27;;;;;;;5.75;97.28;101153.59;10457360;28;20533;-74
2022/12/10 10:47:46;;;;;;;21.65;13.82;;;;;;;5.72;97.23;101157.31;10459478;28;20131;-76
2022/12/10 10:52:46;;;;;;;44.75;34.40;;;;;;;4.70;96.69;101007.84;10466916;28;20097;-74
2022/12/10 10:57:51;;;;;;;21.27;15.25;;;;;;;5.48;95.44;101165.28;10467256;28;20053;-75
2022/12/10 11:02:52;;;;;;;70.57;62.30;;;;;;;5.42;96.05;101160.47;10458754;28;20037;-74
2022/12/10 11:07:59;;;;;;;70.07;59.67;;;;;;;5.14;94.88;101116.06;10488461;28;20041;-77
2022/12/10 11:13:06;;;;;;;53.03;42.40;;;;;;;5.33;95.20;101142.72;10461951;28;20049;-76
2022/12/10 11:18:26;;;;;;;34.95;26.15;;;;;;;5.51;95.11;101164.22;10460779;28;20040;-75
2022/12/10 11:23:32;;;;;;;32.83;19.75;;;;;;;4.73;94.92;101047.09;10500177;28;20068;-77
2022/12/10 11:29:00;;;;;;;26.88;18.02;;;;;;;5.48;95.01;101157.38;10500211;28;20135;-76
2022/12/10 11:34:19;;;;;;;34.50;23.80;;;;;;;4.52;94.86;101003.94;10499192;28;20051;-76
2022/12/10 11:39:57;;;;;;;28.27;19.65;;;;;;;5.60;94.55;101162.69;10499438;28;20157;-83
2022/12/10 11:45:07;;;;;;;28.30;18.40;;;;;;;5.28;94.20;101118.50;10498767;28;20048;-76
2022/12/10 11:50:59;;;;;;;31.70;18.52;;;;;;;5.58;94.09;101162.78;10496788;28;20135;-82
2022/12/10 11:56:21;;;;;;;29.00;19.80;;;;;;;5.52;93.89;101170.31;10462667;28;20049;-81
2022/12/10 12:01:55;;;;;;;27.83;18.13;;;;;;;5.52;94.01;101157.16;10431975;28;20037;-82
2022/12/10 12:07:32;;;;;;;31.58;18.27;;;;;;;5.21;94.24;101093.59;10431070;28;20489;-80
2022/12/10 12:12:38;;;;;;;25.90;17.67;;;;;;;5.53;94.09;101158.81;10441237;28;20041;-83
2022/12/10 12:17:48;;;;;;;26.67;17.40;;;;;;;5.06;94.74;101086.84;10444212;28;20564;-79
2022/12/10 12:22:58;;;;;;;27.95;18.02;;;;;;;4.87;94.60;101056.56;10430450;28;20390;-77
2022/12/10 12:28:25;;;;;;;26.38;18.30;;;;;;;5.42;94.72;101157.84;10442901;28;20456;-79
2022/12/10 12:33:36;;;;;;;28.77;19.63;;;;;;;5.17;94.88;101150.06;10447907;28;20581;-77
2022/12/10 12:39:01;;;;;;;33.35;20.77;;;;;;;5.25;94.65;101160.88;10460351;28;20044;-77
2022/12/10 12:44:21;;;;;;;29.02;19.45;;;;;;;5.28;94.64;101173.81;10439190;28;20040;-77
2022/12/10 12:49:33;;;;;;;31.83;20.38;;;;;;;5.30;95.38;101187.72;10430023;28;20034;-77
2022/12/10 12:54:36;;;;;;;41.25;20.02;;;;;;;5.15;95.54;101146.72;10448797;28;20473;-77
2022/12/10 12:59:57;;;;;;;28.60;18.92;;;;;;;4.41;94.90;101012.59;10442359;28;20088;-77
2022/12/10 13:05:00;;;;;;;33.78;20.67;;;;;;;5.41;96.07;101179.84;10445740;28;20032;-77
2022/12/10 13:10:09;;;;;;;27.50;17.92;;;;;;;5.46;95.30;101168.97;10446221;28;20594;-76
2022/12/10 13:15:20;;;;;;;29.25;19.60;;;;;;;5.53;95.52;101177.25;10435457;28;20120;-77
2022/12/10 13:20:27;;;;;;;39.47;20.85;;;;;;;5.34;95.06;101154.09;10427948;28;20060;-79
2022/12/10 13:25:55;;;;;;;45.38;25.52;;;;;;;4.98;95.45;101095.28;10461515;28;20102;-77
2022/12/10 13:31:27;;;;;;;132.40;55.60;;;;;;;5.34;95.47;101164.63;10492518;28;20055;-78
2022/12/10 13:37:05;;;;;;;165.30;63.47;;;;;;;5.24;95.99;101159.22;10480849;28;20052;-77
2022/12/10 13:47:34;;;;;;;39.63;22.83;;;;;;;4.62;96.50;101067.25;10495161;28;20122;-77
2022/12/10 13:52:46;;;;;;;35.05;21.55;;;;;;;4.63;95.93;101066.28;10495094;28;20519;-77
2022/12/10 13:58:05;;;;;;;50.10;27.80;;;;;;;5.12;95.76;101137.25;10495732;28;20044;-77
2022/12/10 14:03:24;;;;;;;45.97;26.85;;;;;;;5.11;95.66;101146.09;10494179;28;20516;-77
2022/12/10 14:08:33;;;;;;;44.45;27.55;;;;;;;4.99;96.41;101137.28;10494970;28;20134;-77
2022/12/10 14:13:46;;;;;;;44.70;28.33;;;;;;;4.91;96.33;101134.41;10497623;28;20048;-76
2022/12/10 14:18:55;;;;;;;42.25;24.80;;;;;;;4.74;96.04;101132.16;10501651;28;20579;-77
2022/12/10 14:23:57;;;;;;;46.10;26.45;;;;;;;4.68;96.69;101148.38;10502864;28;20132;-77
2022/12/10 14:29:21;;;;;;;39.28;24.58;;;;;;;4.66;96.49;101152.91;10500087;28;20060;-76
2022/12/10 14:34:28;;;;;;;53.67;28.70;;;;;;;4.58;97.13;101162.19;10498267;28;20057;-77
2022/12/10 14:39:33;;;;;;;44.85;26.42;;;;;;;4.65;97.07;101167.03;10500540;28;20044;-78
2022/12/10 14:44:39;;;;;;;52.17;27.17;;;;;;;4.23;96.49;101106.81;10500631;28;20162;-78
2022/12/10 14:49:45;;;;;;;41.67;23.00;;;;;;;4.53;96.31;101147.69;10470897;28;20079;-79
2022/12/10 14:54:47;;;;;;;47.83;26.38;;;;;;;4.60;96.90;101164.72;10454860;28;20049;-73
2022/12/10 15:00:10;;;;;;;45.00;23.33;;;;;;;4.43;95.91;101121.19;10460686;28;20143;-88
2022/12/10 15:05:21;;;;;;;52.78;28.08;;;;;;;4.44;97.04;101141.28;10439024;28;20032;-81
2022/12/10 15:10:40;;;;;;;56.65;32.03;;;;;;;4.40;96.48;101139.84;10444216;28;20386;-82
2022/12/10 15:15:41;;;;;;;55.55;29.85;;;;;;;4.56;97.34;101176.41;10438606;28;20044;-87
2022/12/10 15:20:48;;;;;;;47.10;27.73;;;;;;;4.60;96.82;101163.88;10438560;28;20102;-80
2022/12/10 15:26:04;;;;;;;44.65;22.20;;;;;;;4.51;96.41;101134.63;10474963;28;20061;-94
2022/12/10 15:31:19;;;;;;;35.75;23.48;;;;;;;4.47;96.49;101127.91;10456897;28;20037;-86
2022/12/10 15:36:39;;;;;;;37.92;22.30;;;;;;;4.29;96.17;101098.50;10454784;28;20424;-79
2022/12/10 15:41:52;;;;;;;33.55;20.73;;;;;;;4.32;96.17;101089.53;10442401;28;20046;-88
2022/12/10 15:47:08;;;;;;;33.42;21.73;;;;;;;4.74;96.53;101147.94;10442870;28;20098;-79
2022/12/10 15:52:14;;;;;;;36.67;23.05;;;;;;;4.45;96.35;101110.53;10447979;28;20033;-75
2022/12/10 15:57:24;;;;;;;43.80;26.10;;;;;;;4.67;96.46;101144.06;10431173;28;20061;-81
2022/12/10 16:02:39;;;;;;;37.92;23.50;;;;;;;4.62;96.30;101148.81;10468335;28;20049;-83
2022/12/10 16:07:40;;;;;;;42.72;25.48;;;;;;;4.40;97.18;101113.53;10455659;28;20087;-84
2022/12/10 16:12:42;;;;;;;40.60;24.33;;;;;;;4.61;97.03;101140.09;10499761;28;20040;-83
2022/12/10 16:17:43;;;;;;;44.13;26.70;;;;;;;4.57;96.64;101142.06;10538936;28;20403;-84
2022/12/10 16:22:44;;;;;;;43.03;28.33;;;;;;;4.54;96.82;101136.19;10540166;28;20142;-84
2022/12/10 16:27:45;;;;;;;46.53;27.30;;;;;;;4.52;97.25;101146.00;10540266;28;20052;-83
2022/12/10 16:32:47;;;;;;;37.65;25.02;;;;;;;4.40;97.17;101123.19;10537952;28;20415;-84
2022/12/10 16:37:50;;;;;;;41.30;26.60;;;;;;;3.85;97.31;101034.09;10538792;28;20047;-78
2022/12/10 16:42:51;;;;;;;44.30;25.85;;;;;;;4.39;97.17;101132.03;10526880;28;20427;-84
2022/12/10 16:47:52;;;;;;;43.45;26.98;;;;;;;4.23;97.10;101114.72;10495097;28;20127;-84
2022/12/10 16:52:55;;;;;;;40.97;26.75;;;;;;;4.15;96.95;101097.78;10497098;28;20051;-83
2022/12/10 16:57:56;;;;;;;38.40;23.83;;;;;;;4.25;96.63;101109.34;10494165;28;20044;-84
2022/12/10 17:03:06;;;;;;;44.97;26.80;;;;;;;3.85;97.30;101049.03;10494026;28;20123;-83
2022/12/10 17:08:07;;;;;;;35.10;23.23;;;;;;;4.21;96.79;101100.81;10493736;28;20041;-85
2022/12/10 17:13:13;;;;;;;36.88;23.98;;;;;;;4.35;96.62;101126.16;10492016;28;20036;-84
2022/12/10 17:18:17;;;;;;;34.92;22.45;;;;;;;4.33;96.33;101120.16;10487868;28;20048;-85
2022/12/10 17:23:18;;;;;;;44.13;24.33;;;;;;;4.32;96.51;101126.38;10476985;28;20043;-86
2022/12/10 17:28:21;;;;;;;43.47;24.77;;;;;;;4.19;96.43;101109.75;10493654;28;20060;-84
2022/12/10 17:33:23;;;;;;;37.80;24.02;;;;;;;4.28;96.59;101107.34;10494881;28;20044;-84
2022/12/10 17:38:25;;;;;;;35.42;22.63;;;;;;;4.28;96.34;101114.41;10482814;28;20066;-87
2022/12/10 17:43:26;;;;;;;41.33;25.58;;;;;;;4.29;96.63;101121.31;10488939;28;20045;-85
2022/12/10 17:48:27;;;;;;;35.97;22.45;;;;;;;4.08;96.12;101069.28;10494891;28;20043;-88
2022/12/10 17:53:28;;;;;;;46.78;25.23;;;;;;;4.05;96.47;101068.69;10522774;28;20484;-84
2022/12/10 17:58:29;;;;;;;48.20;27.80;;;;;;;3.70;96.42;101013.31;10500673;28;20041;-86
2022/12/10 18:03:30;;;;;;;46.53;26.80;;;;;;;3.69;96.45;101007.22;10501551;28;20090;-85
2022/12/10 18:08:30;;;;;;;49.00;25.55;;;;;;;4.09;96.41;101073.59;10497867;28;20508;-87
2022/12/10 18:13:31;;;;;;;46.72;27.00;;;;;;;3.85;96.31;101034.09;10515999;28;20496;-87
2022/12/10 18:18:32;;;;;;;49.95;25.73;;;;;;;4.29;96.34;101098.50;10508585;28;20404;-88
2022/12/10 18:23:34;;;;;;;50.47;25.50;;;;;;;4.10;96.48;101072.66;10500508;28;20171;-86
2022/12/10 18:28:38;;;;;;;41.13;20.77;;;;;;;4.18;96.67;101087.03;10499136;28;20113;-84
2022/12/10 18:33:43;;;;;;;56.30;26.70;;;;;;;4.12;95.76;101077.81;10500704;28;20538;-85
2022/12/10 18:38:45;;;;;;;35.30;22.95;;;;;;;4.20;96.08;101090.41;10538542;28;20044;-87
2022/12/10 18:43:47;;;;;;;36.25;22.95;;;;;;;4.12;96.50;101083.06;10491203;28;20060;-87
2022/12/10 18:48:48;;;;;;;37.42;24.10;;;;;;;3.85;96.68;101044.63;10461151;28;20036;-86
2022/12/10 18:53:49;;;;;;;32.72;21.23;;;;;;;4.02;96.62;101072.34;10460331;28;20480;-86
2022/12/10 18:58:51;;;;;;;42.60;23.63;;;;;;;3.88;96.84;101057.53;10459372;28;20128;-84
2022/12/10 19:03:55;;;;;;;35.92;23.98;;;;;;;3.36;97.07;100963.97;10460006;28;20072;-86
2022/12/10 19:08:57;;;;;;;32.85;21.48;;;;;;;3.76;97.20;101026.03;10459653;28;20045;-86
2022/12/10 19:13:59;;;;;;;39.13;24.02;;;;;;;3.80;96.58;101033.59;10459162;28;20496;-85
2022/12/10 19:19:04;;;;;;;35.22;23.30;;;;;;;3.75;97.02;101021.72;10458429;28;20055;-83
2022/12/10 19:24:07;;;;;;;42.30;25.02;;;;;;;3.94;96.96;101053.66;10493433;28;20086;-83
2022/12/10 19:29:15;;;;;;;36.58;23.20;;;;;;;3.73;96.78;101002.59;10497858;28;20056;-83
2022/12/10 19:34:17;;;;;;;38.65;24.17;;;;;;;4.13;97.14;101061.09;10496859;28;20045;-82
2022/12/10 19:39:22;;;;;;;41.13;23.92;;;;;;;4.24;97.40;101076.09;10495804;28;20047;-82
2022/12/10 19:44:22;;;;;;;38.50;24.85;;;;;;;4.19;96.92;101076.44;10496076;28;20740;-83
2022/12/10 19:49:23;;;;;;;37.30;22.25;;;;;;;4.05;96.56;101050.28;10493856;28;20098;-82
2022/12/10 19:54:24;;;;;;;46.88;27.45;;;;;;;3.43;96.57;100964.38;10494592;28;20127;-81
2022/12/10 19:59:25;;;;;;;37.05;23.40;;;;;;;3.47;96.37;100954.50;10505646;28;20450;-84
2022/12/10 20:04:27;;;;;;;36.22;22.80;;;;;;;4.00;96.54;101040.06;10519964;28;20049;-83
2022/12/10 20:09:28;;;;;;;41.58;23.92;;;;;;;4.08;96.43;101053.53;10497187;28;20036;-84
2022/12/10 20:14:29;;;;;;;42.15;24.50;;;;;;;3.41;96.22;100945.25;10496900;28;20085;-83
2022/12/10 20:19:29;;;;;;;41.15;23.00;;;;;;;3.97;96.16;101042.91;10496976;28;20055;-84
2022/12/10 20:24:30;;;;;;;39.30;25.40;;;;;;;4.04;96.62;101054.69;10497086;28;20055;-84
2022/12/10 20:29:31;;;;;;;38.58;21.95;;;;;;;3.83;96.79;101029.94;10495996;28;20063;-84
2022/12/10 20:34:32;;;;;;;36.75;21.17;;;;;;;3.95;97.06;101042.19;10497777;28;20051;-86
2022/12/10 20:39:34;;;;;;;39.47;21.55;;;;;;;3.92;96.88;101045.06;10496717;28;20087;-86
2022/12/10 20:44:35;;;;;;;51.60;28.83;;;;;;;3.70;96.54;101005.44;10496755;28;20033;-86
2022/12/10 20:49:36;;;;;;;45.95;24.80;;;;;;;3.29;97.47;100933.84;10496327;28;20052;-86
2022/12/10 20:54:37;;;;;;;50.60;27.08;;;;;;;3.73;97.21;101000.81;10496329;28;20119;-83
2022/12/10 20:59:38;;;;;;;47.40;25.83;;;;;;;3.66;97.51;100999.56;10495959;28;20127;-86
2022/12/10 21:04:38;;;;;;;43.28;23.23;;;;;;;3.95;97.69;101017.69;10495693;28;20044;-86
2022/12/10 21:09:39;;;;;;;37.22;20.83;;;;;;;3.48;97.51;100943.91;10495851;28;20040;-86
2022/12/10 21:14:40;;;;;;;39.03;21.17;;;;;;;3.94;97.27;101018.63;10494543;28;20037;-86
2022/12/10 21:19:41;;;;;;;44.22;23.42;;;;;;;3.65;97.09;100969.00;10495426;28;20097;-87
2022/12/10 21:24:42;;;;;;;46.35;26.08;;;;;;;3.82;97.71;101000.16;10495567;28;20044;-86
2022/12/10 21:29:43;;;;;;;72.70;38.13;;;;;;;3.89;97.34;101021.59;10495763;28;20404;-86
2022/12/10 21:34:43;;;;;;;47.55;26.40;;;;;;;3.82;97.50;101007.19;10495910;28;20055;-86
2022/12/10 21:39:44;;;;;;;49.72;25.70;;;;;;;3.36;97.33;100924.59;10495423;28;20044;-87
2022/12/10 21:44:45;;;;;;;51.78;26.70;;;;;;;3.77;97.51;100994.41;10494500;28;20071;-86
2022/12/10 21:49:46;;;;;;;43.63;25.42;;;;;;;3.98;96.75;101038.50;10495168;28;20040;-86
2022/12/10 21:54:46;;;;;;;46.58;26.90;;;;;;;3.40;97.20;100944.41;10495445;28;20041;-86
2022/12/10 21:59:47;;;;;;;48.45;27.73;;;;;;;3.60;97.95;100982.44;10494885;28;20093;-86
2022/12/10 22:04:48;;;;;;;52.55;27.17;;;;;;;3.90;97.88;101025.91;10494612;28;20094;-86
2022/12/10 22:09:49;;;;;;;60.25;27.48;;;;;;;3.90;97.73;101031.16;10494807;28;20071;-86
2022/12/10 22:14:50;;;;;;;58.70;26.40;;;;;;;3.84;97.52;101015.81;10494459;28;20492;-86
2022/12/10 22:19:51;;;;;;;52.47;26.27;;;;;;;3.52;97.41;100971.63;10494849;28;20048;-83
2022/12/10 22:24:52;;;;;;;53.75;26.30;;;;;;;3.78;97.29;101024.16;10494751;28;20075;-86
2022/12/10 22:29:52;;;;;;;49.13;26.15;;;;;;;3.83;97.69;101025.50;10494259;28;20056;-84
2022/12/10 22:34:53;;;;;;;47.28;25.15;;;;;;;3.69;97.41;101014.28;10495858;28;20385;-84
2022/12/10 22:39:54;;;;;;;46.47;25.42;;;;;;;2.98;97.66;100893.09;10505205;28;20075;-84
2022/12/10 22:44:55;;;;;;;52.38;25.30;;;;;;;3.28;97.55;100949.69;10501925;28;20465;-85
2022/12/10 22:49:56;;;;;;;48.58;25.95;;;;;;;3.62;97.84;100996.31;10520324;28;20126;-84
2022/12/10 22:54:57;;;;;;;62.25;30.00;;;;;;;3.22;97.85;100921.22;10542793;28;20047;-84
2022/12/10 22:59:58;;;;;;;52.80;27.17;;;;;;;3.71;96.98;100988.72;10543374;28;20484;-84
2022/12/10 23:04:59;;;;;;;59.67;26.48;;;;;;;3.86;97.00;101016.56;10540669;28;20036;-85
2022/12/10 23:10:00;;;;;;;45.35;26.02;;;;;;;3.79;97.37;100997.75;10540688;28;20039;-85
2022/12/10 23:15:00;;;;;;;55.10;26.73;;;;;;;3.78;96.54;100995.25;10542850;28;20118;-85
2022/12/10 23:20:01;;;;;;;54.15;25.20;;;;;;;3.59;96.86;100970.25;10541241;28;20048;-84
2022/12/10 23:25:02;;;;;;;49.33;23.35;;;;;;;3.87;97.09;100995.41;10541628;28;20032;-84
2022/12/10 23:30:04;;;;;;;51.63;24.25;;;;;;;3.84;96.41;101006.16;10541148;28;20048;-85